createdAt,value
2023-05-15T00:02:12.484Z,4.57
2023-05-15T00:04:39.400Z,4.47
2023-05-15T00:07:06.481Z,3.88
2023-05-15T00:09:33.261Z,4.28
2023-05-15T00:12:00.386Z,4.85
2023-05-15T00:14:27.153Z,4.22
2023-05-15T00:16:54.005Z,4.25
2023-05-15T00:19:20.932Z,3.97
2023-05-15T00:21:47.789Z,4.18
2023-05-15T00:24:14.732Z,4.13
2023-05-15T00:26:41.577Z,3.97
2023-05-15T00:29:08.360Z,4.05
2023-05-15T00:31:35.240Z,4.60
2023-05-15T00:34:02.123Z,4.10
2023-05-15T00:36:29.608Z,3.97
2023-05-15T00:38:56.619Z,4.40
2023-05-15T00:41:24.553Z,4.05
2023-05-15T00:43:53.954Z,3.67
2023-05-15T00:46:21.312Z,4.50
2023-05-15T00:48:50.850Z,4.05
2023-05-15T00:51:18.106Z,4.25
2023-05-15T00:53:45.003Z,4.10
2023-05-15T00:56:12.690Z,4.38
2023-05-15T00:58:40.581Z,4.80
2023-05-15T01:01:08.680Z,4.53
2023-05-15T01:03:36.742Z,4.25
2023-05-15T01:06:03.922Z,4.03
2023-05-15T01:08:47.326Z,4.22
2023-05-15T01:13:41.684Z,3.95
2023-05-15T01:16:09.463Z,4.15
2023-05-15T01:18:36.735Z,3.42
2023-05-15T01:21:07.376Z,4.13
2023-05-15T01:24:09.460Z,3.85
2023-05-15T01:26:51.614Z,3.88
2023-05-15T01:29:30.577Z,4.05
2023-05-15T01:32:06.715Z,3.47
2023-05-15T01:35:17.222Z,4.18
2023-05-15T01:37:50.043Z,4.07
2023-05-15T01:40:19.706Z,4.50
2023-05-15T01:42:55.273Z,4.68
2023-05-15T01:45:24.989Z,4.45
2023-05-15T01:47:54.490Z,4.20
2023-05-15T01:50:22.088Z,3.83
2023-05-15T01:52:53.879Z,4.30
2023-05-15T01:55:23.803Z,4.03
2023-05-15T01:57:52.174Z,4.10
2023-05-15T02:00:19.494Z,4.75
2023-05-15T02:02:47.103Z,3.92
2023-05-15T02:05:15.177Z,4.32
2023-05-15T02:07:43.820Z,4.13
2023-05-15T02:10:12.889Z,3.83
2023-05-15T02:12:43.619Z,3.40
2023-05-15T02:15:11.441Z,4.60
2023-05-15T02:17:38.660Z,4.07
2023-05-15T02:20:06.473Z,4.05
2023-05-15T02:22:33.342Z,4.05
2023-05-15T02:25:00.551Z,4.18
2023-05-15T02:27:28.909Z,4.60
2023-05-15T02:30:07.287Z,4.05
2023-05-15T02:32:58.940Z,3.90
2023-05-15T02:35:52.928Z,4.15
2023-05-15T02:38:26.252Z,3.90
2023-05-15T02:40:57.067Z,3.92
2023-05-15T02:43:26.260Z,3.95
2023-05-15T02:45:54.309Z,3.78
2023-05-15T02:48:22.268Z,4.22
2023-05-15T02:50:49.178Z,3.90
2023-05-15T02:53:16.208Z,4.13
2023-05-15T02:55:43.230Z,4.00
2023-05-15T02:58:10.317Z,4.07
2023-05-15T03:00:37.256Z,4.00
2023-05-15T03:03:04.611Z,4.65
2023-05-15T03:05:31.562Z,4.10
2023-05-15T03:07:58.980Z,4.20
2023-05-15T03:10:25.851Z,3.78
2023-05-15T03:12:52.717Z,4.32
2023-05-15T03:15:20.319Z,3.70
2023-05-15T03:17:47.138Z,4.10
2023-05-15T03:20:14.524Z,4.20
2023-05-15T03:22:42.010Z,3.95
2023-05-15T03:25:11.475Z,4.10
2023-05-15T03:27:38.967Z,3.60
2023-05-15T03:30:06.746Z,4.28
2023-05-15T03:32:33.652Z,4.05
2023-05-15T03:35:00.875Z,4.15
2023-05-15T03:37:28.133Z,3.80
2023-05-15T03:39:55.080Z,4.00
2023-05-15T03:42:23.714Z,4.38
2023-05-15T03:44:51.119Z,3.97
2023-05-15T03:47:18.578Z,4.13
2023-05-15T03:49:46.373Z,3.88
2023-05-15T03:52:13.600Z,4.07
2023-05-15T03:54:40.738Z,4.00
2023-05-15T03:57:07.857Z,3.60
2023-05-15T03:59:34.741Z,4.10
2023-05-15T04:02:05.476Z,4.13
2023-05-15T04:04:33.122Z,3.80
2023-05-15T04:07:00.640Z,3.72
2023-05-15T04:09:27.522Z,3.70
2023-05-15T04:11:54.306Z,3.70
2023-05-15T04:14:21.159Z,3.67
2023-05-15T04:16:48.141Z,3.88
2023-05-15T04:19:15.211Z,3.72
2023-05-15T04:21:42.150Z,3.28
2023-05-15T04:24:08.970Z,3.63
2023-05-15T04:26:36.596Z,3.67
2023-05-15T04:29:04.784Z,3.55
2023-05-15T04:31:32.609Z,3.90
2023-05-15T04:33:59.589Z,3.72
2023-05-15T04:36:26.521Z,3.70
2023-05-15T04:38:53.425Z,3.80
2023-05-15T04:41:20.852Z,3.80
2023-05-15T04:43:47.748Z,3.65
2023-05-15T04:46:14.600Z,4.18
2023-05-15T04:48:41.470Z,3.67
2023-05-15T04:51:08.284Z,3.50
2023-05-15T04:53:35.126Z,3.95
2023-05-15T04:56:02.001Z,4.00
2023-05-15T04:58:28.806Z,3.95
2023-05-15T05:00:55.740Z,3.63
2023-05-15T05:03:23.154Z,4.05
2023-05-15T05:05:50.075Z,3.80
2023-05-15T05:08:16.944Z,4.18
2023-05-15T05:10:43.801Z,4.78
2023-05-15T05:13:10.609Z,4.63
2023-05-15T05:15:37.745Z,4.22
2023-05-15T05:18:05.093Z,4.40
2023-05-15T05:20:32.009Z,3.92
2023-05-15T05:22:58.829Z,4.38
2023-05-15T05:25:25.822Z,4.15
2023-05-15T05:27:52.871Z,4.40
2023-05-15T05:30:19.817Z,3.90
2023-05-15T05:32:46.706Z,4.07
2023-05-15T05:35:14.044Z,4.00
2023-05-15T05:37:41.552Z,4.18
2023-05-15T05:40:09.344Z,3.63
2023-05-15T05:42:36.247Z,4.32
2023-05-15T05:45:03.078Z,3.90
2023-05-15T05:47:29.969Z,3.75
2023-05-15T05:49:57.067Z,3.95
2023-05-15T05:52:23.868Z,3.97
2023-05-15T05:54:50.827Z,3.50
2023-05-15T05:57:17.881Z,4.07
2023-05-15T05:59:45.876Z,3.80
2023-05-15T06:02:13.502Z,4.15
2023-05-15T06:04:41.136Z,4.10
2023-05-15T06:07:08.735Z,4.13
2023-05-15T06:09:35.872Z,4.25
2023-05-15T06:12:04.928Z,4.50
2023-05-15T06:14:31.806Z,4.03
2023-05-15T06:16:58.722Z,3.90
2023-05-15T06:19:25.587Z,4.00
2023-05-15T06:21:53.450Z,4.15
2023-05-15T06:24:20.307Z,4.35
2023-05-15T06:26:47.322Z,4.30
2023-05-15T06:29:14.198Z,5.38
2023-05-15T06:31:41.068Z,4.57
2023-05-15T06:34:07.891Z,5.20
2023-05-15T06:36:35.424Z,4.95
2023-05-15T06:39:02.310Z,5.15
2023-05-15T06:41:29.212Z,4.78
2023-05-15T06:43:56.097Z,5.18
2023-05-15T06:46:23.021Z,5.38
2023-05-15T06:48:49.892Z,6.10
2023-05-15T06:51:17.128Z,5.63
2023-05-15T06:53:43.968Z,5.50
2023-05-15T06:56:10.806Z,5.50
2023-05-15T06:58:37.813Z,5.60
2023-05-15T07:01:06.534Z,6.07
2023-05-15T07:03:33.554Z,5.90
2023-05-15T07:06:00.430Z,6.40
2023-05-15T07:08:27.327Z,5.70
2023-05-15T07:10:54.219Z,5.95
2023-05-15T07:13:21.500Z,5.78
2023-05-15T07:15:48.852Z,5.07
2023-05-15T07:18:15.731Z,5.28
2023-05-15T07:20:42.627Z,5.68
2023-05-15T07:23:09.584Z,5.25
2023-05-15T07:25:36.467Z,5.10
2023-05-15T07:28:03.377Z,4.78
2023-05-15T07:30:30.513Z,4.38
2023-05-15T07:32:57.397Z,4.45
2023-05-15T07:35:25.274Z,4.40
2023-05-15T07:37:54.300Z,4.07
2023-05-15T07:40:21.207Z,3.50
2023-05-15T07:42:48.099Z,3.17
2023-05-15T07:45:14.978Z,2.60
2023-05-15T07:47:49.476Z,2.92
2023-05-15T07:50:16.871Z,2.15
2023-05-15T07:52:44.567Z,2.60
2023-05-15T07:55:12.503Z,2.28
2023-05-15T07:57:40.056Z,2.97
2023-05-15T08:00:12.657Z,2.53
2023-05-15T08:02:40.800Z,2.80
2023-05-15T08:05:08.263Z,2.65
2023-05-15T08:07:35.401Z,2.28
2023-05-15T08:10:04.299Z,2.42
2023-05-15T08:12:31.193Z,2.28
2023-05-15T08:14:58.031Z,1.90
2023-05-15T08:17:25.795Z,2.22
2023-05-15T08:19:52.994Z,1.90
2023-05-15T08:22:19.895Z,1.92
2023-05-15T08:24:46.952Z,2.47
2023-05-15T08:27:13.876Z,2.35
2023-05-15T08:29:40.853Z,1.90
2023-05-15T08:32:08.980Z,2.00
2023-05-15T08:34:35.879Z,2.05
2023-05-15T08:37:04.688Z,2.00
2023-05-15T08:39:31.689Z,2.35
2023-05-15T08:42:03.899Z,2.95
2023-05-15T08:44:31.079Z,2.40
2023-05-15T08:46:58.776Z,2.50
2023-05-15T08:49:51.012Z,2.20
2023-05-15T08:52:17.821Z,2.40
2023-05-15T08:54:48.373Z,2.30
2023-05-15T08:57:16.920Z,2.28
2023-05-15T08:59:43.836Z,2.17
2023-05-15T09:02:10.771Z,2.35
2023-05-15T09:04:37.713Z,2.63
2023-05-15T09:07:06.659Z,2.40
2023-05-15T09:09:36.534Z,2.40
2023-05-15T09:12:04.589Z,2.25
2023-05-15T09:14:31.443Z,2.40
2023-05-15T09:16:59.363Z,2.00
2023-05-15T09:19:27.622Z,2.13
2023-05-15T09:21:54.466Z,2.10
2023-05-15T09:24:24.462Z,1.92
2023-05-15T09:27:02.850Z,2.22
2023-05-15T09:29:31.685Z,2.10
2023-05-15T09:32:05.641Z,2.80
2023-05-15T09:34:34.391Z,3.78
2023-05-15T09:37:04.704Z,4.20
2023-05-15T09:39:31.760Z,3.80
2023-05-15T09:42:12.678Z,3.45
2023-05-15T09:44:44.511Z,3.05
2023-05-15T09:47:13.336Z,3.40
2023-05-15T09:49:43.746Z,3.70
2023-05-15T09:52:10.952Z,3.17
2023-05-15T09:54:38.222Z,3.05
2023-05-15T09:57:10.034Z,2.90
2023-05-15T09:59:42.660Z,2.85
2023-05-15T10:02:09.462Z,3.45
2023-05-15T10:04:36.906Z,4.07
2023-05-15T10:07:03.871Z,3.95
2023-05-15T10:09:33.842Z,3.67
2023-05-15T10:12:00.892Z,3.00
2023-05-15T10:14:28.935Z,2.65
2023-05-15T10:16:58.295Z,2.78
2023-05-15T10:19:29.576Z,3.53
2023-05-15T10:21:58.404Z,2.60
2023-05-15T10:24:27.576Z,2.63
2023-05-15T10:26:55.727Z,2.90
2023-05-15T10:29:26.721Z,2.53
2023-05-15T10:31:54.102Z,2.40
2023-05-15T10:34:21.439Z,2.50
2023-05-15T10:36:51.653Z,2.50
2023-05-15T10:39:19.794Z,1.80
2023-05-15T10:41:47.135Z,2.10
2023-05-15T10:44:15.678Z,2.00
2023-05-15T10:46:43.216Z,2.15
2023-05-15T10:49:10.327Z,2.50
2023-05-15T10:51:39.478Z,1.90
2023-05-15T10:54:06.567Z,2.10
2023-05-15T10:56:34.750Z,2.03
2023-05-15T10:59:09.688Z,1.55
2023-05-15T11:01:39.162Z,1.50
2023-05-15T11:04:08.739Z,1.75
2023-05-15T11:06:36.692Z,1.55
2023-05-15T11:09:21.947Z,1.77
2023-05-15T11:11:57.033Z,1.15
2023-05-15T11:14:25.475Z,1.55
2023-05-15T11:16:55.587Z,1.40
2023-05-15T11:19:31.647Z,1.25
2023-05-15T11:22:30.519Z,1.42
2023-05-15T11:25:04.173Z,1.33
2023-05-15T11:27:42.010Z,1.40
2023-05-15T11:30:09.079Z,1.33
2023-05-15T11:32:48.098Z,1.20
2023-05-15T11:35:26.522Z,1.33
2023-05-15T11:37:57.522Z,1.40
2023-05-15T11:40:32.421Z,1.70
2023-05-15T11:43:18.848Z,1.90
2023-05-15T11:46:01.241Z,1.40
2023-05-15T11:48:49.136Z,1.50
2023-05-15T11:51:30.234Z,1.25
2023-05-15T11:54:08.104Z,1.30
2023-05-15T11:56:35.066Z,1.48
2023-05-15T12:02:54.482Z,1.30
2023-05-15T12:05:21.521Z,1.60
2023-05-15T12:07:48.808Z,1.50
2023-05-15T12:10:15.918Z,1.45
2023-05-15T12:12:44.540Z,1.13
2023-05-15T12:15:13.297Z,1.35
2023-05-15T12:17:41.160Z,1.30
2023-05-15T12:20:14.609Z,1.38
2023-05-15T12:22:45.045Z,1.17
2023-05-15T12:25:13.105Z,1.30
2023-05-15T12:27:40.296Z,1.35
2023-05-15T12:30:08.170Z,1.17
2023-05-15T12:32:36.809Z,1.30
2023-05-15T12:35:05.088Z,1.27
2023-05-15T12:37:35.315Z,1.80
2023-05-15T12:40:14.490Z,1.45
2023-05-15T12:42:43.526Z,0.90
2023-05-15T12:45:18.419Z,1.10
2023-05-15T12:47:47.502Z,1.15
2023-05-15T12:50:16.347Z,1.20
2023-05-15T12:52:57.829Z,1.25
2023-05-15T12:55:25.821Z,1.45
2023-05-15T12:57:54.040Z,1.98
2023-05-15T13:00:22.574Z,1.48
2023-05-15T13:02:57.324Z,1.90
2023-05-15T13:05:28.258Z,1.95
2023-05-15T13:07:55.352Z,1.67
2023-05-15T13:10:23.943Z,2.08
2023-05-15T13:12:53.231Z,1.90
2023-05-15T13:15:22.892Z,1.75
2023-05-15T13:17:58.080Z,1.70
2023-05-15T13:20:25.431Z,1.73
2023-05-15T13:22:52.341Z,1.50
2023-05-15T13:25:20.352Z,1.65
2023-05-15T13:27:48.036Z,1.60
2023-05-15T13:30:15.419Z,1.88
2023-05-15T13:32:50.229Z,1.88
2023-05-15T13:35:17.039Z,2.00
2023-05-15T13:37:43.865Z,1.90
2023-05-15T13:40:12.928Z,1.75
2023-05-15T13:42:43.646Z,2.05
2023-05-15T13:45:12.720Z,1.52
2023-05-15T13:47:40.082Z,2.00
2023-05-15T13:50:11.384Z,2.25
2023-05-15T13:52:38.950Z,1.90
2023-05-15T13:55:07.016Z,2.20
2023-05-15T13:57:34.543Z,2.42
2023-05-15T14:00:01.395Z,1.92
2023-05-15T14:02:28.757Z,2.08
2023-05-15T14:04:55.733Z,2.00
2023-05-15T14:07:23.360Z,1.83
2023-05-15T14:09:50.893Z,1.60
2023-05-15T14:12:17.933Z,1.80
2023-05-15T14:14:50.296Z,1.80
2023-05-15T14:17:18.467Z,1.45
2023-05-15T14:20:11.546Z,1.60
2023-05-15T14:22:46.304Z,1.80
2023-05-15T14:25:58.990Z,1.80
2023-05-15T14:28:53.388Z,1.50
2023-05-15T14:31:37.131Z,1.55
2023-05-15T14:34:16.043Z,1.90
2023-05-15T14:36:50.464Z,1.33
2023-05-15T14:42:32.921Z,1.50
2023-05-15T14:45:20.684Z,1.83
2023-05-15T14:47:54.713Z,1.40
2023-05-15T14:50:37.715Z,1.52
2023-05-15T14:53:07.602Z,1.30
2023-05-15T14:55:43.560Z,1.40
2023-05-15T14:58:18.797Z,1.48
2023-05-15T15:00:46.107Z,1.40
2023-05-15T15:03:12.987Z,1.60
2023-05-15T15:05:39.912Z,1.38
2023-05-15T15:08:09.044Z,1.67
2023-05-15T15:10:38.228Z,1.50
2023-05-15T15:13:06.180Z,1.50
2023-05-15T15:15:34.431Z,1.42
2023-05-15T15:18:01.836Z,1.80
2023-05-15T15:20:29.340Z,1.50
2023-05-15T15:22:56.302Z,1.60
2023-05-15T15:25:23.407Z,1.77
2023-05-15T15:27:50.478Z,1.83
2023-05-15T15:30:17.736Z,2.30
2023-05-15T15:32:45.129Z,2.17
2023-05-15T15:35:12.587Z,2.28
2023-05-15T15:37:39.526Z,2.58
2023-05-15T15:40:07.574Z,2.03
2023-05-15T15:42:35.044Z,2.20
2023-05-15T15:45:02.120Z,2.10
2023-05-15T15:47:32.173Z,2.42
2023-05-15T15:49:59.541Z,2.13
2023-05-15T15:52:26.813Z,2.20
2023-05-15T15:54:53.753Z,2.03
2023-05-15T15:57:21.282Z,2.42
2023-05-15T15:59:49.204Z,2.28
2023-05-15T16:02:16.919Z,2.10
2023-05-15T16:04:43.605Z,2.20
2023-05-15T16:07:10.450Z,2.40
2023-05-15T16:09:37.593Z,2.30
2023-05-15T16:12:04.721Z,2.50
2023-05-15T16:14:31.673Z,2.47
2023-05-15T16:16:58.605Z,2.83
2023-05-15T16:19:25.459Z,2.70
2023-05-15T16:21:52.130Z,2.78
2023-05-15T16:24:18.873Z,2.63
2023-05-15T16:26:45.580Z,3.20
2023-05-15T16:29:12.509Z,3.22
2023-05-15T16:31:39.278Z,3.10
2023-05-15T16:34:06.161Z,3.08
2023-05-15T16:36:33.136Z,2.80
2023-05-15T16:39:00.448Z,2.75
2023-05-15T16:41:27.280Z,3.50
2023-05-15T16:43:54.173Z,2.78
2023-05-15T16:46:20.991Z,2.40
2023-05-15T16:48:47.917Z,2.25
2023-05-15T16:51:14.705Z,2.00
2023-05-15T16:53:41.534Z,1.73
2023-05-15T16:56:08.369Z,1.80
2023-05-15T16:58:48.588Z,1.60
2023-05-15T17:01:33.461Z,1.90
2023-05-15T17:04:00.362Z,1.60
2023-05-15T17:06:36.442Z,1.73
2023-05-15T17:09:34.788Z,1.42
2023-05-15T17:15:20.699Z,1.70
2023-05-15T17:18:00.127Z,1.73
2023-05-15T17:20:37.833Z,1.60
2023-05-15T17:23:21.732Z,1.63
2023-05-15T17:29:12.768Z,1.73
2023-05-15T17:31:40.113Z,1.50
2023-05-15T17:34:07.358Z,1.60
2023-05-15T17:36:34.340Z,2.00
2023-05-15T17:41:50.542Z,2.10
2023-05-15T17:47:10.162Z,2.00
2023-05-15T17:49:38.044Z,2.00
2023-05-15T17:52:33.114Z,2.03
2023-05-15T17:58:12.248Z,1.90
2023-05-15T18:00:39.495Z,1.70
2023-05-15T18:06:16.167Z,1.77
2023-05-15T18:09:04.030Z,2.22
2023-05-15T18:11:38.910Z,2.55
2023-05-15T18:17:48.054Z,2.17
2023-05-15T18:20:29.603Z,2.20
2023-05-15T18:27:05.954Z,2.47
2023-05-15T18:29:32.878Z,2.47
2023-05-15T18:32:08.548Z,2.75
2023-05-15T18:34:47.734Z,2.90
2023-05-15T18:37:31.080Z,2.28
2023-05-15T18:40:08.976Z,2.55
2023-05-15T18:42:35.916Z,2.60
2023-05-15T18:45:17.212Z,2.15
2023-05-15T18:51:12.352Z,2.10
2023-05-15T18:53:44.689Z,2.40
2023-05-15T18:59:20.558Z,3.00
2023-05-15T19:01:57.763Z,3.00
2023-05-15T19:04:49.206Z,2.40
2023-05-15T19:07:42.973Z,2.80
2023-05-15T19:10:18.992Z,2.97
2023-05-15T19:13:02.989Z,3.08
2023-05-15T19:16:07.523Z,3.00
2023-05-15T19:18:46.059Z,3.38
2023-05-15T19:22:25.306Z,3.47
2023-05-15T19:24:54.867Z,3.33
2023-05-15T19:27:49.194Z,3.78
2023-05-15T19:30:18.906Z,4.10
2023-05-15T19:32:51.532Z,4.00
2023-05-15T19:35:20.770Z,3.70
2023-05-15T19:38:30.656Z,3.30
2023-05-15T19:40:57.476Z,3.58
2023-05-15T19:43:24.535Z,4.32
2023-05-15T19:45:57.078Z,4.03
2023-05-15T19:48:24.072Z,4.20
2023-05-15T19:51:22.173Z,3.42
2023-05-15T19:53:49.112Z,3.42
2023-05-15T19:56:41.436Z,3.40
2023-05-15T19:59:08.196Z,3.20
2023-05-15T20:01:42.644Z,3.50
2023-05-15T20:07:44.989Z,3.25
2023-05-15T20:10:11.963Z,3.10
2023-05-15T20:12:48.057Z,3.70
2023-05-15T20:15:16.611Z,3.25
2023-05-15T20:20:55.923Z,3.30
2023-05-15T20:23:24.654Z,3.83
2023-05-15T20:29:11.676Z,3.40
2023-05-15T20:31:40.997Z,3.40
2023-05-15T20:34:08.308Z,3.72
2023-05-15T20:36:40.015Z,3.85
2023-05-15T20:40:17.044Z,3.53
2023-05-15T20:42:43.813Z,3.40
2023-05-15T20:48:08.634Z,3.75
2023-05-15T20:51:01.575Z,3.85
2023-05-15T20:53:51.242Z,3.53
2023-05-15T20:57:11.879Z,3.38
2023-05-15T20:59:38.709Z,3.38
2023-05-15T21:02:05.535Z,3.33
2023-05-15T21:04:32.386Z,3.10
2023-05-15T21:06:59.327Z,3.33
2023-05-15T21:09:28.544Z,3.28
2023-05-15T21:11:55.560Z,3.60
2023-05-15T21:14:28.641Z,4.28
2023-05-15T21:16:55.859Z,3.92
2023-05-15T21:19:23.090Z,3.72
2023-05-15T21:21:53.628Z,3.72
2023-05-15T21:24:21.494Z,4.07
2023-05-15T21:26:48.715Z,4.53
2023-05-15T21:29:15.758Z,4.40
2023-05-15T21:31:42.909Z,3.38
2023-05-15T21:34:09.731Z,3.65
2023-05-15T21:36:36.570Z,3.47
2023-05-15T21:39:04.748Z,3.72
2023-05-15T21:41:31.705Z,3.42
2023-05-15T21:43:58.629Z,3.92
2023-05-15T21:46:25.589Z,4.90
2023-05-15T21:48:52.385Z,4.22
2023-05-15T21:51:19.530Z,3.83
2023-05-15T21:53:48.266Z,3.92
2023-05-15T21:56:15.380Z,3.58
2023-05-15T21:58:42.312Z,3.45
2023-05-15T22:01:09.199Z,3.72
2023-05-15T22:03:36.246Z,3.60
2023-05-15T22:06:03.320Z,3.47
2023-05-15T22:08:30.452Z,3.20
2023-05-15T22:10:57.507Z,3.42
2023-05-15T22:13:24.894Z,3.47
2023-05-15T22:15:51.873Z,3.30
2023-05-15T22:18:18.804Z,3.45
2023-05-15T22:20:48.645Z,3.63
2023-05-15T22:23:15.766Z,3.70
2023-05-15T22:25:42.601Z,3.88
2023-05-15T22:28:09.555Z,3.60
2023-05-15T22:30:36.475Z,3.50
2023-05-15T22:33:03.419Z,3.58
2023-05-15T22:35:30.616Z,3.40
2023-05-15T22:37:57.524Z,3.50
2023-05-15T22:40:26.149Z,3.10
2023-05-15T22:42:53.172Z,3.60
2023-05-15T22:45:20.391Z,3.45
2023-05-15T22:47:47.554Z,3.38
2023-05-15T22:50:14.610Z,3.80
2023-05-15T22:52:41.445Z,3.40
2023-05-15T22:55:10.365Z,3.58
2023-05-15T22:57:37.305Z,3.80
2023-05-15T23:00:06.266Z,3.78
2023-05-15T23:02:33.239Z,3.58
2023-05-15T23:05:00.121Z,3.58
2023-05-15T23:07:27.049Z,3.92
2023-05-15T23:09:53.890Z,3.72
2023-05-15T23:12:21.079Z,3.72
2023-05-15T23:14:48.033Z,3.95
2023-05-15T23:17:15.052Z,3.67
2023-05-15T23:19:41.989Z,3.95
2023-05-15T23:22:08.874Z,3.90
2023-05-15T23:24:35.672Z,3.90
2023-05-15T23:27:02.543Z,3.92
2023-05-15T23:29:29.461Z,4.65
2023-05-15T23:31:57.690Z,6.10
2023-05-15T23:34:24.496Z,6.82
2023-05-15T23:36:51.379Z,7.28
2023-05-15T23:39:18.183Z,6.80
2023-05-15T23:41:45.048Z,6.57
2023-05-15T23:44:11.850Z,7.15
2023-05-15T23:46:38.915Z,7.35
2023-05-15T23:49:05.815Z,7.28
2023-05-15T23:51:32.692Z,7.57
2023-05-15T23:53:59.498Z,8.13
2023-05-15T23:56:26.345Z,7.40
2023-05-15T23:58:53.083Z,7.65
